Time;durP1;ratioP1;P1;durP2;ratioP2;P2;SDS_P1;SDS_P2;PMS_P1;PMS_P2;Temp;Humidity;BMP_temperature;BMP_pressure;BME280_temperature;BME280_humidity;BME280_pressure;Samples;Min_cycle;Max_cycle;Signal;HPM_P1;HPM_P2
2022/01/04 00:01:34;;;;;;;2.17;0.83;;;;;;;10.68;81.78;97757.72;5045807;28;20201;-56
2022/01/04 00:04:02;;;;;;;3.30;1.20;;;;;;;10.62;83.69;97745.34;5046636;28;20218;-56
2022/01/04 00:06:29;;;;;;;2.70;0.77;;;;;;;10.70;81.04;97749.72;5037864;28;20209;-56
2022/01/04 00:09:00;;;;;;;4.07;1.13;;;;;;;10.70;82.88;97724.41;5039774;28;20216;-56
2022/01/04 00:11:42;;;;;;;2.70;0.70;;;;;;;10.73;83.01;97739.72;5038521;28;20247;-57
2022/01/04 00:14:09;;;;;;;1.30;0.70;;;;;;;10.62;84.94;97730.50;5040546;28;20202;-57
2022/01/04 00:16:36;;;;;;;2.57;0.90;;;;;;;10.61;84.24;97717.63;5032898;28;20334;-57
2022/01/04 00:19:04;;;;;;;2.80;1.00;;;;;;;10.62;84.17;97698.38;5041325;28;20189;-56
2022/01/04 00:21:31;;;;;;;1.20;0.70;;;;;;;10.71;82.10;97712.19;5037292;28;20280;-56
2022/01/04 00:23:58;;;;;;;2.13;0.90;;;;;;;10.71;83.44;97697.31;5043222;28;20604;-56
2022/01/04 00:26:25;;;;;;;1.77;0.80;;;;;;;10.71;85.01;97692.09;5045816;28;20587;-55
2022/01/04 00:28:52;;;;;;;4.07;0.93;;;;;;;10.66;84.43;97686.59;5032334;28;20230;-56
2022/01/04 00:31:19;;;;;;;2.37;0.87;;;;;;;10.56;86.20;97675.59;5042545;28;20248;-55
2022/01/04 00:33:46;;;;;;;1.73;0.63;;;;;;;10.56;85.99;97670.38;5044200;28;20194;-56
2022/01/04 00:36:14;;;;;;;2.80;0.90;;;;;;;10.53;84.94;97666.31;5041714;28;20328;-55
2022/01/04 00:38:41;;;;;;;1.93;0.80;;;;;;;10.53;86.24;97649.88;5039613;28;20229;-57
2022/01/04 00:41:07;;;;;;;3.37;1.00;;;;;;;10.47;86.67;97667.84;5036399;28;20665;-56
2022/01/04 00:43:35;;;;;;;1.03;0.80;;;;;;;10.50;86.43;97660.66;5038826;28;20205;-56
2022/01/04 00:46:02;;;;;;;1.73;0.90;;;;;;;10.55;85.06;97642.69;5048554;28;20213;-54
2022/01/04 00:51:15;;;;;;;1.63;0.90;;;;;;;10.63;83.41;97608.66;5042045;28;20213;-56
2022/01/04 00:53:41;;;;;;;1.53;0.90;;;;;;;10.61;85.49;97613.25;5048595;28;20668;-56
2022/01/04 00:56:08;;;;;;;1.67;1.00;;;;;;;10.56;86.60;97603.34;5049931;28;20306;-52
2022/01/04 00:58:35;;;;;;;1.17;0.80;;;;;;;10.60;83.81;97604.63;5044666;28;20235;-54
2022/01/04 01:01:01;;;;;;;2.63;0.80;;;;;;;10.52;87.16;97589.03;5047815;28;20560;-54
2022/01/04 01:03:28;;;;;;;2.83;0.93;;;;;;;10.58;83.12;97584.91;5049425;28;20220;-56
2022/01/04 01:05:55;;;;;;;1.30;1.00;;;;;;;10.58;85.58;97585.72;5047036;28;20949;-51
2022/01/04 01:08:23;;;;;;;1.53;1.10;;;;;;;10.56;85.16;97573.84;5042403;28;20200;-57
2022/01/04 01:10:50;;;;;;;1.83;1.00;;;;;;;10.54;85.98;97571.41;5039928;28;20220;-56
2022/01/04 01:13:17;;;;;;;2.67;0.90;;;;;;;10.47;86.53;97558.25;5039896;28;20201;-53
2022/01/04 01:15:45;;;;;;;1.30;0.80;;;;;;;10.48;86.21;97566.88;5036671;28;20215;-56
2022/01/04 01:18:14;;;;;;;2.17;1.20;;;;;;;10.44;85.18;97558.59;5036159;28;20195;-56
2022/01/04 01:20:41;;;;;;;5.63;1.10;;;;;;;10.43;87.45;97541.34;5039136;28;20194;-55
2022/01/04 01:23:08;;;;;;;1.90;1.10;;;;;;;10.42;88.76;97544.09;5043928;28;20189;-56
2022/01/04 01:25:36;;;;;;;3.17;1.33;;;;;;;10.35;87.80;97536.16;5041703;28;20203;-53
2022/01/04 01:28:03;;;;;;;2.00;1.10;;;;;;;10.40;87.49;97526.03;5037263;28;20196;-56
2022/01/04 01:30:32;;;;;;;1.30;1.00;;;;;;;10.36;87.04;97519.53;5034512;28;20281;-56
2022/01/04 01:32:59;;;;;;;1.90;1.17;;;;;;;10.34;87.85;97508.44;5051738;28;20195;-57
2022/01/04 01:35:26;;;;;;;3.40;1.20;;;;;;;10.43;85.22;97504.81;5044383;28;20702;-56
2022/01/04 01:37:53;;;;;;;1.77;1.17;;;;;;;10.40;87.70;97506.94;5045435;28;20189;-56
2022/01/04 01:40:20;;;;;;;2.33;1.37;;;;;;;10.36;87.56;97498.66;5039758;28;20207;-57
2022/01/04 01:42:48;;;;;;;1.47;1.10;;;;;;;10.39;86.16;97489.66;5034541;28;20217;-56
2022/01/04 01:45:16;;;;;;;2.30;1.20;;;;;;;10.38;87.79;97480.19;5043082;28;20210;-55
2022/01/04 01:47:44;;;;;;;2.40;1.40;;;;;;;10.36;86.58;97466.53;5047664;28;20190;-56
2022/01/04 01:50:12;;;;;;;2.70;1.37;;;;;;;10.31;87.75;97464.47;5041416;28;20708;-56
2022/01/04 01:52:40;;;;;;;0.97;0.87;;;;;;;10.31;89.07;97461.84;5045498;28;20652;-56
2022/01/04 01:55:08;;;;;;;2.57;1.20;;;;;;;10.32;88.10;97463.47;5058796;28;20210;-56
2022/01/04 01:57:35;;;;;;;1.33;0.90;;;;;;;10.29;87.16;97456.00;5063689;28;20247;-56
2022/01/04 02:00:05;;;;;;;1.97;1.10;;;;;;;10.41;84.95;97435.53;5036882;28;20676;-54
2022/01/04 02:02:31;;;;;;;1.90;1.10;;;;;;;10.43;85.42;97433.56;5034642;28;20232;-56
2022/01/04 02:04:58;;;;;;;1.83;1.20;;;;;;;10.50;83.66;97426.63;5044843;28;20183;-55
2022/01/04 02:07:25;;;;;;;2.53;1.40;;;;;;;10.46;84.51;97418.38;5054265;28;20190;-55
2022/01/04 02:10:02;;;;;;;2.80;1.10;;;;;;;10.50;83.38;97405.75;5053459;28;20190;-55
2022/01/04 02:12:29;;;;;;;3.17;1.30;;;;;;;10.53;82.80;97404.59;5053748;28;20196;-57
2022/01/04 02:14:56;;;;;;;2.20;1.13;;;;;;;10.58;80.66;97408.28;5040269;28;20200;-56
2022/01/04 02:17:24;;;;;;;2.60;1.20;;;;;;;10.67;82.01;97395.13;5049176;28;20270;-56
2022/01/04 02:19:54;;;;;;;1.93;1.20;;;;;;;10.62;82.63;97383.44;5040431;28;20201;-56
2022/01/04 02:22:21;;;;;;;1.87;1.07;;;;;;;10.70;81.71;97392.16;5040149;28;20203;-53
2022/01/04 02:24:48;;;;;;;1.80;1.17;;;;;;;10.69;81.90;97375.69;5052503;28;20190;-55
2022/01/04 02:27:16;;;;;;;2.27;1.00;;;;;;;10.69;80.90;97377.50;5039092;28;20199;-53
2022/01/04 02:29:43;;;;;;;3.63;1.20;;;;;;;10.72;81.64;97374.50;5033221;28;20590;-56
2022/01/04 02:32:11;;;;;;;1.60;1.10;;;;;;;10.69;82.20;97380.91;5033885;28;20608;-56
2022/01/04 02:34:39;;;;;;;2.27;1.10;;;;;;;10.69;83.58;97380.09;5031924;28;20196;-57
2022/01/04 02:37:08;;;;;;;1.87;1.13;;;;;;;10.62;83.07;97387.84;5037751;28;20214;-56
2022/01/04 02:39:36;;;;;;;1.93;1.60;;;;;;;10.56;84.13;97389.38;5042947;28;20203;-57
2022/01/04 02:42:04;;;;;;;1.67;1.17;;;;;;;10.50;86.22;97382.28;5045401;28;20225;-56
2022/01/04 02:44:31;;;;;;;5.40;1.23;;;;;;;10.43;87.77;97376.16;5046842;28;20213;-57
2022/01/04 02:46:58;;;;;;;2.60;1.30;;;;;;;10.32;86.82;97380.00;5042452;28;20221;-57
2022/01/04 02:49:24;;;;;;;2.33;1.33;;;;;;;10.30;87.48;97389.81;5044030;28;20274;-57
2022/01/04 02:51:51;;;;;;;1.83;1.20;;;;;;;10.24;90.76;97386.09;5044161;28;20256;-55
2022/01/04 02:54:20;;;;;;;3.50;1.30;;;;;;;10.18;88.83;97371.19;5044405;28;20197;-56
2022/01/04 02:56:46;;;;;;;2.13;1.30;;;;;;;10.13;91.13;97374.34;5044308;28;20552;-57
2022/01/04 02:59:13;;;;;;;2.80;1.00;;;;;;;10.11;90.65;97362.44;5043968;28;20195;-56
2022/01/04 03:01:40;;;;;;;4.07;1.37;;;;;;;10.06;92.32;97360.38;5041516;28;20626;-55
2022/01/04 03:04:07;;;;;;;2.47;1.03;;;;;;;10.01;93.02;97341.88;5044091;28;20193;-55
2022/01/04 03:06:35;;;;;;;1.77;1.20;;;;;;;10.00;92.10;97341.06;5041954;28;20217;-55
2022/01/04 03:09:02;;;;;;;3.03;1.30;;;;;;;9.98;91.97;97343.06;5048280;28;20185;-54
2022/01/04 03:11:30;;;;;;;1.83;1.03;;;;;;;9.99;93.24;97331.63;5042628;28;20695;-57
2022/01/04 03:13:57;;;;;;;2.73;1.20;;;;;;;10.01;93.31;97319.22;5045240;28;20200;-58
2022/01/04 03:16:24;;;;;;;2.20;1.17;;;;;;;9.97;93.09;97324.97;5043678;28;20264;-57
2022/01/04 03:19:03;;;;;;;2.03;1.10;;;;;;;9.96;93.89;97303.31;5043303;28;20192;-56
2022/01/04 03:21:31;;;;;;;2.37;0.90;;;;;;;10.03;92.33;97316.44;5042924;28;20190;-56
2022/01/04 03:23:58;;;;;;;2.70;1.27;;;;;;;9.95;94.03;97299.09;5041894;28;20249;-54
2022/01/04 03:26:25;;;;;;;5.97;1.60;;;;;;;9.94;95.34;97297.47;5041455;28;20213;-55
2022/01/04 03:28:54;;;;;;;1.43;0.90;;;;;;;10.01;92.93;97292.34;5043327;28;20182;-57
2022/01/04 03:31:21;;;;;;;2.60;1.03;;;;;;;9.97;93.89;97288.47;5039736;28;20210;-56
2022/01/04 03:33:48;;;;;;;1.47;0.90;;;;;;;9.97;94.00;97278.88;5041310;28;20273;-57
2022/01/04 03:36:15;;;;;;;1.23;0.73;;;;;;;10.00;94.40;97278.50;5042775;28;20221;-56
2022/01/04 03:38:43;;;;;;;2.33;0.73;;;;;;;10.03;93.23;97278.16;5041852;28;20183;-56
2022/01/04 03:41:10;;;;;;;2.93;1.03;;;;;;;10.02;94.43;97267.88;5040553;28;20199;-55
2022/01/04 03:43:38;;;;;;;1.60;0.87;;;;;;;10.00;94.11;97288.94;5042713;28;20198;-56
2022/01/04 03:46:07;;;;;;;1.47;0.80;;;;;;;10.04;92.83;97274.56;5041942;28;20650;-55
2022/01/04 03:48:35;;;;;;;1.43;0.70;;;;;;;10.15;90.70;97275.88;5040939;28;20660;-55
2022/01/04 03:51:02;;;;;;;3.53;1.03;;;;;;;10.14;93.31;97274.25;5040857;28;20290;-56
2022/01/04 03:53:29;;;;;;;2.83;0.63;;;;;;;10.11;93.93;97248.56;5042297;28;20248;-56
2022/01/04 03:55:56;;;;;;;1.93;0.80;;;;;;;10.09;94.50;97258.34;5042734;28;20216;-57
2022/01/04 03:58:23;;;;;;;3.67;0.80;;;;;;;10.01;95.71;97246.22;5041729;28;20279;-57
2022/01/04 04:00:50;;;;;;;0.63;0.60;;;;;;;10.03;96.30;97233.81;5038581;28;20786;-56
2022/01/04 04:03:19;;;;;;;1.07;0.67;;;;;;;10.02;96.21;97227.00;5042265;28;20203;-57
2022/01/04 04:05:47;;;;;;;0.97;0.70;;;;;;;10.03;96.94;97217.38;5041996;28;20576;-57
2022/01/04 04:08:14;;;;;;;2.50;0.73;;;;;;;10.02;96.21;97218.34;5040272;28;20669;-57
2022/01/04 04:10:40;;;;;;;2.27;0.60;;;;;;;10.01;98.24;97225.38;5041171;28;20258;-58
2022/01/04 04:13:07;;;;;;;1.40;0.80;;;;;;;9.96;98.36;97200.84;5041909;28;20186;-57
2022/01/04 04:15:34;;;;;;;1.00;0.70;;;;;;;9.99;97.54;97200.47;5040493;28;20721;-57
2022/01/04 04:18:01;;;;;;;2.00;0.63;;;;;;;10.01;98.31;97201.09;5041658;28;20189;-55
2022/01/04 04:20:29;;;;;;;1.40;0.67;;;;;;;10.10;96.01;97193.97;5040925;28;20213;-55
2022/01/04 04:22:58;;;;;;;1.37;0.50;;;;;;;10.13;96.67;97183.16;5040279;28;20225;-57
2022/01/04 04:25:24;;;;;;;2.67;0.70;;;;;;;10.06;97.65;97198.75;5044340;28;20221;-56
2022/01/04 04:27:51;;;;;;;1.37;0.50;;;;;;;10.10;96.97;97188.75;5045275;28;20203;-58
2022/01/04 04:30:18;;;;;;;1.57;0.70;;;;;;;10.07;98.24;97197.75;5039480;28;20679;-57
2022/01/04 04:32:44;;;;;;;0.70;0.70;;;;;;;10.10;96.99;97189.56;5040215;28;20218;-57
2022/01/04 04:35:11;;;;;;;2.07;0.63;;;;;;;10.05;98.90;97173.66;5041781;28;20228;-55
2022/01/04 04:37:39;;;;;;;1.57;0.70;;;;;;;10.10;98.37;97150.47;5038872;28;20195;-54
2022/01/04 04:40:07;;;;;;;2.53;0.60;;;;;;;10.06;99.05;97154.44;5039622;28;20284;-57
2022/01/04 04:42:34;;;;;;;2.80;0.70;;;;;;;10.06;98.65;97146.63;5039188;28;20185;-54
2022/01/04 04:45:01;;;;;;;1.63;0.60;;;;;;;10.06;99.02;97143.22;5035418;28;20202;-58
2022/01/04 04:47:28;;;;;;;1.30;0.57;;;;;;;10.11;98.50;97148.66;5048536;28;20579;-55
2022/01/04 04:49:55;;;;;;;1.03;0.50;;;;;;;10.11;97.98;97154.69;5051062;28;20280;-57
2022/01/04 04:52:21;;;;;;;1.80;0.60;;;;;;;10.12;99.30;97140.66;5045719;28;20594;-54
2022/01/04 04:54:50;;;;;;;0.90;0.47;;;;;;;10.11;98.90;97114.75;5049817;28;20193;-56
2022/01/04 04:57:16;;;;;;;0.70;0.40;;;;;;;10.15;99.07;97126.44;5049711;28;20199;-56
2022/01/04 04:59:43;;;;;;;1.63;0.60;;;;;;;10.14;98.92;97109.16;5050892;28;20219;-54
2022/01/04 05:02:10;;;;;;;0.50;0.50;;;;;;;10.13;98.87;97102.34;5051204;28;20183;-58
2022/01/04 05:04:37;;;;;;;0.70;0.37;;;;;;;10.24;97.43;97077.59;5051056;28;20187;-57
2022/01/04 05:07:05;;;;;;;0.83;0.40;;;;;;;10.33;97.54;97089.50;5050847;28;20282;-58
2022/01/04 05:09:32;;;;;;;1.77;0.50;;;;;;;10.40;96.54;97089.59;5050824;28;20193;-57
2022/01/04 05:12:00;;;;;;;0.40;0.30;;;;;;;10.38;96.58;97081.94;5050572;28;20220;-56
2022/01/04 05:14:27;;;;;;;1.07;0.40;;;;;;;10.35;98.53;97084.91;5050766;28;20194;-57
2022/01/04 05:16:53;;;;;;;1.40;0.40;;;;;;;10.38;96.85;97071.50;5050686;28;20216;-57
2022/01/04 05:19:20;;;;;;;1.43;0.53;;;;;;;10.43;96.95;97076.16;5050780;28;20247;-57
2022/01/04 05:21:47;;;;;;;1.67;0.50;;;;;;;10.45;96.90;97076.78;5049752;28;20186;-56
2022/01/04 05:24:13;;;;;;;0.83;0.47;;;;;;;10.42;97.92;97077.16;5050634;28;20189;-57
2022/01/04 05:26:40;;;;;;;2.07;0.57;;;;;;;10.40;98.22;97069.53;5050657;28;20299;-57
2022/01/04 05:29:08;;;;;;;1.33;0.50;;;;;;;10.41;97.77;97047.69;5050593;28;20189;-57
2022/01/04 05:31:35;;;;;;;0.77;0.60;;;;;;;10.43;98.18;97058.72;5049773;28;20212;-56
2022/01/04 05:34:02;;;;;;;1.13;0.50;;;;;;;10.50;96.91;97045.72;5050580;28;20654;-54
2022/01/04 05:36:29;;;;;;;2.00;0.50;;;;;;;10.48;98.78;97032.88;5050331;28;20224;-57
2022/01/04 05:38:55;;;;;;;0.73;0.50;;;;;;;10.53;98.68;97031.50;5050581;28;20185;-57
2022/01/04 05:41:22;;;;;;;2.60;0.93;;;;;;;10.55;97.66;97032.13;5049753;28;20188;-57
2022/01/04 05:43:49;;;;;;;0.90;0.50;;;;;;;10.62;96.91;97004.25;5050439;28;20202;-56
2022/01/04 05:46:17;;;;;;;2.50;0.80;;;;;;;10.60;98.34;97016.72;5050408;28;20209;-55
2022/01/04 05:48:44;;;;;;;1.13;0.70;;;;;;;10.61;97.38;97010.47;5050487;28;20272;-57
2022/01/04 05:51:11;;;;;;;0.83;0.63;;;;;;;10.69;96.56;97010.31;5049505;28;20221;-54
2022/01/04 05:53:37;;;;;;;1.00;0.80;;;;;;;10.73;96.16;96998.50;5050439;28;20200;-56
2022/01/04 05:56:05;;;;;;;2.73;1.37;;;;;;;10.69;97.03;97012.94;5050280;28;20224;-58
2022/01/04 05:58:31;;;;;;;6.30;4.63;;;;;;;10.73;95.90;97000.31;5050335;28;20240;-54
2022/01/04 06:00:58;;;;;;;2.27;1.70;;;;;;;10.74;96.84;97002.72;5049752;28;20208;-54
2022/01/04 06:03:26;;;;;;;2.07;1.30;;;;;;;10.78;96.10;96985.69;5050372;28;20187;-57
2022/01/04 06:05:55;;;;;;;6.70;4.80;;;;;;;10.91;94.96;96989.38;5050116;28;20245;-57
2022/01/04 06:08:22;;;;;;;3.20;2.83;;;;;;;10.87;95.92;96975.09;5050935;28;20194;-57
2022/01/04 06:10:51;;;;;;;3.60;2.67;;;;;;;10.80;96.77;96972.47;5053165;28;20562;-56
2022/01/04 06:16:05;;;;;;;1.97;1.10;;;;;;;10.79;97.38;96986.50;5028247;28;20292;-57
2022/01/04 06:18:33;;;;;;;1.43;1.20;;;;;;;10.81;96.82;96988.91;5053920;28;20196;-57
2022/01/04 06:21:00;;;;;;;1.73;1.47;;;;;;;10.77;97.38;96988.50;5052934;28;20563;-57
2022/01/04 06:23:26;;;;;;;0.97;0.83;;;;;;;10.76;98.00;96968.63;5053460;28;20632;-57
2022/01/04 06:25:54;;;;;;;1.63;0.83;;;;;;;10.85;96.26;96974.47;5053771;28;20697;-57
2022/01/04 06:28:21;;;;;;;1.93;1.00;;;;;;;10.78;97.33;96945.75;5053732;28;20185;-58
2022/01/04 06:30:51;;;;;;;2.30;1.47;;;;;;;10.75;97.72;96967.81;5052829;28;20201;-57
2022/01/04 06:33:19;;;;;;;3.97;2.30;;;;;;;10.77;98.77;96957.97;5053504;28;20225;-58
2022/01/04 06:35:48;;;;;;;2.10;1.67;;;;;;;10.77;98.99;96957.19;5053474;28;20303;-57
2022/01/04 06:38:15;;;;;;;2.40;2.13;;;;;;;10.77;99.03;96941.53;5053666;28;20193;-57
2022/01/04 06:40:42;;;;;;;2.10;1.47;;;;;;;10.81;98.67;96939.31;5052917;28;20237;-57
2022/01/04 06:43:09;;;;;;;1.40;0.57;;;;;;;10.82;99.52;96935.72;5053516;28;20193;-58
2022/01/04 06:45:35;;;;;;;2.60;1.40;;;;;;;10.81;99.66;96944.53;5053418;28;20287;-58
2022/01/04 06:48:02;;;;;;;0.80;0.50;;;;;;;10.81;100.00;96937.53;5053350;28;20193;-57
2022/01/04 06:50:29;;;;;;;1.83;0.73;;;;;;;10.84;98.11;96931.91;5052439;28;20187;-55
2022/01/04 06:52:57;;;;;;;1.13;0.73;;;;;;;10.90;98.09;96941.59;5047553;28;20210;-57
2022/01/04 06:55:24;;;;;;;0.80;0.67;;;;;;;10.98;97.57;96918.94;5052976;28;20221;-57
2022/01/04 06:57:50;;;;;;;0.90;0.67;;;;;;;10.97;98.21;96941.59;5053006;28;20597;-56
2022/01/04 07:00:20;;;;;;;1.00;0.60;;;;;;;10.97;98.72;96938.19;5052380;28;20269;-58
2022/01/04 07:02:47;;;;;;;3.10;0.73;;;;;;;10.97;98.28;96940.81;5052998;28;20265;-58
2022/01/04 07:05:14;;;;;;;1.33;0.80;;;;;;;11.02;96.62;96934.00;5052792;28;20210;-57
2022/01/04 07:07:41;;;;;;;2.70;0.60;;;;;;;11.05;97.59;96910.09;5052942;28;20252;-56
2022/01/04 07:10:09;;;;;;;1.13;0.90;;;;;;;11.04;98.86;96933.81;5052157;28;20186;-56
2022/01/04 07:12:36;;;;;;;2.30;1.17;;;;;;;11.03;98.17;96932.19;5051484;28;20785;-57
2022/01/04 07:15:04;;;;;;;1.67;0.90;;;;;;;11.03;98.66;96946.03;5052682;28;20208;-56
2022/01/04 07:17:30;;;;;;;2.30;1.17;;;;;;;11.05;97.68;96906.69;5052677;28;20194;-56
2022/01/04 07:19:57;;;;;;;1.20;0.80;;;;;;;11.03;98.42;96911.31;5051476;28;20185;-57
2022/01/04 07:22:25;;;;;;;1.37;0.80;;;;;;;11.11;96.70;96926.00;5052547;28;20593;-57
2022/01/04 07:24:52;;;;;;;1.47;0.83;;;;;;;11.15;96.28;96906.31;5052603;28;20196;-58
2022/01/04 07:27:20;;;;;;;2.80;0.77;;;;;;;11.21;95.89;96900.31;5052628;28;20200;-57
2022/01/04 07:29:47;;;;;;;2.33;1.00;;;;;;;11.17;96.02;96905.09;5051957;28;20554;-58
2022/01/04 07:32:14;;;;;;;1.10;0.70;;;;;;;11.12;97.76;96911.94;5052406;28;20256;-56
2022/01/04 07:34:40;;;;;;;2.67;0.73;;;;;;;11.15;95.47;96893.25;5052545;28;20181;-56
2022/01/04 07:37:07;;;;;;;1.47;0.83;;;;;;;11.15;96.26;96903.69;5052301;28;20218;-58
2022/01/04 07:39:34;;;;;;;2.13;0.60;;;;;;;11.17;96.24;96892.03;5052025;28;20185;-57
2022/01/04 07:42:02;;;;;;;3.47;0.90;;;;;;;11.25;94.70;96893.69;5052195;28;20193;-57
2022/01/04 07:44:33;;;;;;;1.90;1.00;;;;;;;11.29;93.65;96897.50;5051004;28;20198;-57
2022/01/04 07:47:00;;;;;;;2.65;0.82;;;;;;;11.28;94.58;96905.53;5051851;28;20955;-59
2022/01/04 07:49:27;;;;;;;2.43;0.80;;;;;;;11.33;94.09;96916.19;5052073;28;20193;-58
2022/01/04 07:51:54;;;;;;;1.27;0.60;;;;;;;11.33;93.87;96922.25;5051331;28;20224;-56
2022/01/04 07:54:20;;;;;;;3.93;0.87;;;;;;;11.34;94.35;96917.81;5052133;28;20553;-58
2022/01/04 07:56:47;;;;;;;3.73;0.70;;;;;;;11.33;95.16;96917.00;5051879;28;20237;-57
2022/01/04 07:59:14;;;;;;;2.00;0.70;;;;;;;11.33;94.29;96927.47;5052755;28;20189;-57
2022/01/04 08:01:42;;;;;;;0.83;0.70;;;;;;;11.39;92.62;96901.56;5050637;28;20207;-58
2022/01/04 08:04:09;;;;;;;4.93;0.80;;;;;;;11.33;94.06;96906.56;5052529;28;20190;-57
2022/01/04 08:06:36;;;;;;;1.47;0.80;;;;;;;11.35;94.69;96899.34;5052733;28;20206;-58
2022/01/04 08:09:03;;;;;;;1.20;0.67;;;;;;;11.40;92.77;96903.16;5052510;28;20185;-57
2022/01/04 08:11:30;;;;;;;1.30;0.80;;;;;;;11.45;92.80;96917.22;5051695;28;20585;-58
2022/01/04 08:13:59;;;;;;;0.90;0.60;;;;;;;11.45;92.88;96913.81;5052360;28;20218;-57
2022/01/04 08:16:26;;;;;;;2.67;0.73;;;;;;;11.52;90.95;96884.06;5052219;28;20227;-57
2022/01/04 08:18:54;;;;;;;1.50;0.70;;;;;;;11.51;90.74;96874.63;5052497;28;20276;-57
2022/01/04 08:21:20;;;;;;;2.00;0.80;;;;;;;11.58;89.49;96871.22;5051566;28;20664;-57
2022/01/04 08:23:47;;;;;;;1.73;0.97;;;;;;;11.59;90.15;96884.09;5051911;28;20185;-57
2022/01/04 08:26:16;;;;;;;1.70;0.97;;;;;;;11.62;89.29;96865.41;5051346;28;20220;-57
2022/01/04 08:28:42;;;;;;;2.33;0.90;;;;;;;11.62;90.49;96854.94;5051488;28;20198;-57
2022/01/04 08:31:10;;;;;;;1.50;0.60;;;;;;;11.65;89.76;96856.34;5049299;28;20200;-58
2022/01/04 08:33:37;;;;;;;1.40;0.80;;;;;;;11.67;89.27;96891.72;5050513;28;20223;-58
2022/01/04 08:36:07;;;;;;;2.53;0.93;;;;;;;11.87;86.48;96879.66;5051170;28;20261;-58
2022/01/04 08:38:34;;;;;;;7.20;1.30;;;;;;;11.79;90.10;96872.81;5051308;28;20190;-58
2022/01/04 08:41:01;;;;;;;2.70;1.40;;;;;;;11.79;90.40;96880.66;5050319;28;20546;-58
2022/01/04 08:43:28;;;;;;;9.33;3.70;;;;;;;11.69;91.00;96881.06;5051125;28;20179;-57
2022/01/04 08:45:54;;;;;;;3.97;1.20;;;;;;;11.63;92.01;96903.59;5051298;28;20207;-59
2022/01/04 08:48:21;;;;;;;8.93;4.10;;;;;;;11.57;93.10;96877.44;5051360;28;20225;-57
2022/01/04 08:50:48;;;;;;;1.23;0.83;;;;;;;11.43;93.65;96877.44;5050212;28;20228;-58
2022/01/04 08:53:17;;;;;;;18.37;11.33;;;;;;;11.39;94.42;96884.06;5046779;28;20252;-57
2022/01/04 08:55:44;;;;;;;4.20;1.50;;;;;;;11.28;96.81;96861.94;5051077;28;20207;-56
2022/01/04 08:58:11;;;;;;;14.53;8.17;;;;;;;11.29;96.61;96873.19;5050839;28;20191;-57
2022/01/04 09:00:38;;;;;;;1.87;1.33;;;;;;;11.28;95.57;96859.34;5050306;28;20200;-57
2022/01/04 09:03:04;;;;;;;3.80;1.20;;;;;;;11.27;96.33;96847.28;5050940;28;20182;-58
2022/01/04 09:05:31;;;;;;;4.17;1.53;;;;;;;11.31;95.40;96830.22;5050857;28;20219;-54
2022/01/04 09:07:58;;;;;;;3.50;2.60;;;;;;;11.24;97.60;96826.78;5050896;28;20237;-56
2022/01/04 09:10:26;;;;;;;4.43;3.20;;;;;;;11.30;96.01;96838.22;5050187;28;20268;-56
2022/01/04 09:12:59;;;;;;;2.87;2.10;;;;;;;11.31;96.84;96842.44;5050593;28;20211;-57
2022/01/04 09:15:55;;;;;;;5.43;3.13;;;;;;;11.29;95.80;96834.81;5050747;28;20220;-56
2022/01/04 09:21:07;;;;;;;1.63;1.20;;;;;;;11.26;98.35;96827.38;5049990;28;20679;-57
2022/01/04 09:23:34;;;;;;;3.30;1.77;;;;;;;11.30;96.29;96840.84;5050630;28;20193;-56
2022/01/04 09:26:05;;;;;;;3.13;0.97;;;;;;;11.26;97.38;96853.50;5050638;28;20966;-54
2022/01/04 09:28:32;;;;;;;3.47;0.90;;;;;;;11.29;97.23;96854.91;5050986;28;20220;-55
2022/01/04 09:31:00;;;;;;;5.50;2.17;;;;;;;11.28;97.32;96875.00;5050917;28;20651;-56
2022/01/04 09:33:27;;;;;;;2.43;1.73;;;;;;;11.29;97.16;96875.78;5051149;28;20216;-57
2022/01/04 09:35:54;;;;;;;5.17;2.70;;;;;;;11.32;95.95;96850.09;5051220;28;20678;-55
2022/01/04 09:38:21;;;;;;;4.03;1.90;;;;;;;11.31;96.04;96855.50;5051111;28;20190;-58
2022/01/04 09:40:49;;;;;;;2.60;1.20;;;;;;;11.35;94.22;96854.09;5050513;28;20205;-55
2022/01/04 09:43:19;;;;;;;4.03;1.77;;;;;;;11.36;94.94;96877.44;5044094;28;20188;-58
2022/01/04 09:45:46;;;;;;;3.90;2.13;;;;;;;11.38;93.58;96866.78;5035403;28;20219;-54
2022/01/04 09:48:12;;;;;;;5.87;1.90;;;;;;;11.48;91.95;96866.41;5042347;28;20191;-56
2022/01/04 09:50:41;;;;;;;4.87;1.40;;;;;;;11.49;92.96;96865.38;5047638;28;22115;-53
2022/01/04 09:53:12;;;;;;;2.47;1.20;;;;;;;11.54;91.81;96860.38;5047574;28;20229;-56
2022/01/04 09:55:42;;;;;;;1.87;0.90;;;;;;;11.70;88.21;96860.94;5047004;28;20245;-56
2022/01/04 09:58:10;;;;;;;1.67;1.17;;;;;;;11.62;90.37;96834.03;5048104;28;20271;-56
2022/01/04 10:00:38;;;;;;;3.57;1.30;;;;;;;11.58;91.03;96848.50;5054791;28;20195;-58
2022/01/04 10:03:13;;;;;;;1.50;1.00;;;;;;;11.80;86.59;96816.91;5055229;28;20220;-58
2022/01/04 10:05:40;;;;;;;2.30;1.03;;;;;;;11.79;88.89;96834.41;5055004;28;20709;-58
2022/01/04 10:08:09;;;;;;;2.93;1.47;;;;;;;11.76;86.50;96816.53;5055071;28;20587;-57
2022/01/04 10:10:37;;;;;;;2.43;1.03;;;;;;;11.74;89.21;96812.50;5054838;28;20229;-57
2022/01/04 10:13:06;;;;;;;2.13;1.17;;;;;;;11.74;88.75;96812.50;5054979;28;20229;-58
2022/01/04 10:15:39;;;;;;;2.27;1.20;;;;;;;11.76;87.66;96805.25;5055029;28;20202;-58
2022/01/04 10:18:26;;;;;;;2.60;1.10;;;;;;;11.81;85.93;96800.22;5054957;28;20181;-58
2022/01/04 10:21:13;;;;;;;2.10;1.47;;;;;;;11.82;85.93;96791.38;5054066;28;20210;-58
2022/01/04 10:23:51;;;;;;;3.23;1.20;;;;;;;11.77;89.40;96799.84;5054696;28;20195;-58
2022/01/04 10:26:28;;;;;;;3.77;1.27;;;;;;;11.80;86.88;96814.28;5050077;28;20243;-58
2022/01/04 10:28:55;;;;;;;4.80;1.70;;;;;;;11.77;88.55;96799.03;5035843;28;20193;-60
2022/01/04 10:31:22;;;;;;;2.90;1.50;;;;;;;11.59;91.16;96812.72;5036996;28;20269;-59
2022/01/04 10:33:54;;;;;;;4.63;1.17;;;;;;;11.57;89.43;96792.03;5039212;28;20237;-58
2022/01/04 10:36:24;;;;;;;3.43;1.60;;;;;;;11.48;91.48;96780.19;5052927;28;20216;-58
2022/01/04 10:38:51;;;;;;;4.03;1.20;;;;;;;11.42;91.53;96800.06;5054070;28;20194;-58
2022/01/04 10:41:25;;;;;;;2.60;1.10;;;;;;;11.46;90.84;96797.88;5053036;28;20201;-58
2022/01/04 10:43:55;;;;;;;4.37;1.40;;;;;;;11.56;88.78;96813.13;5052879;28;20685;-57
2022/01/04 10:46:32;;;;;;;3.87;1.50;;;;;;;11.55;88.69;96788.81;5061224;28;20211;-58
2022/01/04 10:49:00;;;;;;;2.97;1.20;;;;;;;11.47;91.25;96784.59;5073615;28;20265;-57
2022/01/04 10:51:30;;;;;;;2.57;1.30;;;;;;;11.46;89.03;96800.47;5072118;28;20211;-59
2022/01/04 10:54:00;;;;;;;2.20;1.57;;;;;;;11.48;89.86;96796.66;5050045;28;20208;-59
2022/01/04 10:56:31;;;;;;;3.03;1.20;;;;;;;11.49;89.33;96803.47;5052095;28;20220;-59
2022/01/04 10:58:59;;;;;;;3.00;1.40;;;;;;;11.48;90.97;96791.41;5052821;28;20205;-58
2022/01/04 11:01:28;;;;;;;5.93;1.47;;;;;;;11.34;91.95;96780.19;5051539;28;20213;-59
2022/01/04 11:03:56;;;;;;;4.67;1.80;;;;;;;11.34;92.42;96808.09;5053705;28;20178;-57
2022/01/04 11:06:27;;;;;;;3.83;1.83;;;;;;;11.50;86.99;96799.06;5052334;28;20279;-59
2022/01/04 11:08:54;;;;;;;4.07;1.40;;;;;;;11.47;90.38;96802.88;5053285;28;20600;-58
2022/01/04 11:11:22;;;;;;;2.90;1.30;;;;;;;11.63;86.72;96783.38;5052393;28;20549;-57
2022/01/04 11:13:51;;;;;;;2.83;2.07;;;;;;;11.56;89.74;96795.66;5052423;28;20225;-58
2022/01/04 11:16:19;;;;;;;5.80;1.60;;;;;;;11.69;85.75;96792.22;5052958;28;20237;-58
2022/01/04 11:18:50;;;;;;;3.10;1.50;;;;;;;11.74;87.61;96797.63;5052711;28;20216;-58
2022/01/04 11:21:20;;;;;;;3.10;1.57;;;;;;;11.70;86.96;96793.81;5051790;28;20180;-58
2022/01/04 11:23:49;;;;;;;7.53;1.70;;;;;;;11.65;87.00;96778.75;5052617;28;20731;-59
2022/01/04 11:26:16;;;;;;;3.63;1.60;;;;;;;11.70;88.84;96783.34;5052776;28;20277;-58
2022/01/04 11:28:45;;;;;;;9.77;6.03;;;;;;;11.69;87.83;96779.13;5052058;28;20189;-58
2022/01/04 11:31:32;;;;;;;4.33;1.80;;;;;;;11.80;85.48;96783.75;5035950;28;20673;-57
2022/01/04 11:34:11;;;;;;;2.43;1.33;;;;;;;11.78;85.79;96782.34;5032127;28;20235;-58
2022/01/04 11:36:41;;;;;;;4.93;1.60;;;;;;;11.74;86.38;96776.72;5032486;28;20220;-58
2022/01/04 11:39:34;;;;;;;3.87;2.00;;;;;;;11.74;85.91;96768.06;5032638;28;20186;-58
2022/01/04 11:42:06;;;;;;;3.33;1.50;;;;;;;11.84;82.52;96768.44;5031654;28;20351;-59
2022/01/04 11:44:33;;;;;;;3.67;2.17;;;;;;;11.80;86.05;96762.03;5032293;28;20181;-59
2022/01/04 11:47:09;;;;;;;4.00;2.10;;;;;;;11.73;86.08;96758.63;5032518;28;20594;-59